Time;durP1;ratioP1;P1;durP2;ratioP2;P2;SDS_P1;SDS_P2;PMS_P1;PMS_P2;Temp;Humidity;BMP_temperature;BMP_pressure;BME280_temperature;BME280_humidity;BME280_pressure;Samples;Min_cycle;Max_cycle;Signal;HPM_P1;HPM_P2
2023/09/29 00:01:11;;;;;;;15.90;7.30;;;;;;;13.63;58.62;101783.06;107559;1254;97858;-62
2023/09/29 00:03:40;;;;;;;28.40;7.90;;;;;;;13.57;58.47;101784.55;107599;1254;99565;-61
2023/09/29 00:06:09;;;;;;;14.20;8.00;;;;;;;13.53;58.71;101787.84;107593;1254;110791;-61
2023/09/29 00:08:37;;;;;;;23.70;7.70;;;;;;;13.50;58.68;101785.07;107578;1254;108821;-62
2023/09/29 00:11:05;;;;;;;18.40;7.90;;;;;;;13.45;58.72;101787.25;107600;1253;107703;-62
2023/09/29 00:13:33;;;;;;;17.50;8.30;;;;;;;13.40;58.69;101784.58;107542;1254;97880;-62
2023/09/29 00:16:02;;;;;;;14.70;7.80;;;;;;;13.38;58.86;101782.08;107663;1254;97960;-62
2023/09/29 00:18:30;;;;;;;23.10;8.60;;;;;;;13.33;59.06;101782.46;107557;1256;111730;-62
2023/09/29 00:20:59;;;;;;;20.50;7.90;;;;;;;13.28;58.96;101787.11;107630;1254;109735;-61
2023/09/29 00:23:27;;;;;;;19.60;7.70;;;;;;;13.24;59.17;101789.31;107586;1254;107981;-62
2023/09/29 00:25:56;;;;;;;21.00;7.40;;;;;;;13.21;59.30;101788.64;107562;1256;97857;-62
2023/09/29 00:28:24;;;;;;;21.70;7.80;;;;;;;13.20;59.80;101790.42;107485;1254;97838;-62
2023/09/29 00:30:52;;;;;;;21.00;8.20;;;;;;;13.17;59.62;101793.70;107555;1254;111248;-62
2023/09/29 00:33:21;;;;;;;28.30;9.10;;;;;;;13.16;59.63;101795.52;107568;1253;109332;-62
2023/09/29 00:35:49;;;;;;;29.40;8.60;;;;;;;13.17;60.35;101792.28;107510;1256;106629;-62
2023/09/29 00:38:18;;;;;;;25.20;9.50;;;;;;;13.19;60.31;101793.58;107589;1254;97854;-60
2023/09/29 00:40:47;;;;;;;24.90;8.50;;;;;;;13.20;60.10;101790.34;107596;1257;97939;-63
2023/09/29 00:43:16;;;;;;;25.20;8.40;;;;;;;13.25;60.16;101790.27;107567;1254;111732;-62
2023/09/29 00:45:47;;;;;;;33.00;8.90;;;;;;;13.29;59.99;101793.56;107533;1258;109622;-62
2023/09/29 00:48:17;;;;;;;23.20;8.60;;;;;;;13.35;59.98;101796.90;107581;1254;106782;-62
2023/09/29 00:50:46;;;;;;;26.10;8.60;;;;;;;13.40;59.95;101794.84;107592;1254;97931;-61
2023/09/29 00:53:18;;;;;;;14.90;7.60;;;;;;;13.43;59.93;101791.14;107565;1254;97776;-61
2023/09/29 00:55:48;;;;;;;23.80;8.60;;;;;;;13.45;60.15;101793.48;107562;1254;111740;-62
2023/09/29 00:58:17;;;;;;;17.40;8.40;;;;;;;13.48;60.43;101799.97;107548;1256;108216;-61
2023/09/29 01:00:45;;;;;;;24.30;8.80;;;;;;;13.50;60.27;101799.11;107581;1254;108950;-61
2023/09/29 01:03:15;;;;;;;16.90;8.50;;;;;;;13.51;60.10;101798.65;107556;1252;97959;-61
2023/09/29 01:05:49;;;;;;;16.80;8.40;;;;;;;13.53;60.08;101799.52;107540;1254;97837;-61
2023/09/29 01:08:20;;;;;;;;;;;;;;;13.55;59.95;101800.85;107648;1254;111161;-62
2023/09/29 01:10:49;;;;;;;34.90;8.40;;;;;;;13.58;59.81;101800.92;107599;1251;110838;-62
2023/09/29 01:13:17;;;;;;;34.50;9.00;;;;;;;13.60;59.85;101802.16;107598;1254;107004;-62
2023/09/29 01:15:47;;;;;;;21.30;8.50;;;;;;;13.61;59.75;101805.52;107534;1253;97935;-63
2023/09/29 01:18:16;;;;;;;31.90;8.60;;;;;;;13.60;59.96;101809.38;107573;1254;98477;-61
2023/09/29 01:20:45;;;;;;;26.30;7.90;;;;;;;13.55;60.18;101810.73;107655;1254;111131;-61
2023/09/29 01:23:14;;;;;;;29.10;9.20;;;;;;;13.50;60.03;101814.04;107582;1254;109826;-62
2023/09/29 01:25:43;;;;;;;20.40;8.40;;;;;;;13.47;60.02;101814.10;107576;1256;107969;-61
2023/09/29 01:28:12;;;;;;;24.80;9.30;;;;;;;13.41;60.06;101810.23;107542;1254;97832;-62
2023/09/29 01:30:44;;;;;;;34.00;9.80;;;;;;;13.36;60.13;101807.95;107622;1254;97736;-62
2023/09/29 01:33:13;;;;;;;21.10;8.80;;;;;;;13.30;60.13;101805.70;107597;1253;112125;-62
2023/09/29 01:35:43;;;;;;;24.50;8.10;;;;;;;13.25;60.06;101809.79;107656;1255;110008;-63
2023/09/29 01:38:12;;;;;;;19.40;8.80;;;;;;;13.23;60.07;101808.71;107618;1254;108501;-62
2023/09/29 01:40:44;;;;;;;19.90;8.60;;;;;;;13.20;60.22;101814.13;107597;1254;97938;-62
2023/09/29 01:43:13;;;;;;;23.90;10.00;;;;;;;13.19;60.31;101815.52;107547;1254;98476;-62
2023/09/29 01:45:42;;;;;;;24.20;9.90;;;;;;;13.19;60.35;101814.23;107630;1254;110057;-62
2023/09/29 01:48:11;;;;;;;23.80;9.80;;;;;;;13.19;60.06;101813.86;107623;1256;107293;-62
2023/09/29 01:50:40;;;;;;;24.40;10.50;;;;;;;13.18;59.81;101817.20;107603;1254;108293;-62
2023/09/29 01:53:11;;;;;;;29.90;9.50;;;;;;;13.18;59.90;101819.02;107555;1254;97803;-61
2023/09/29 01:55:40;;;;;;;30.70;9.90;;;;;;;13.16;59.76;101819.52;107526;1256;97840;-61
2023/09/29 01:58:09;;;;;;;20.60;8.90;;;;;;;13.14;59.91;101815.92;107583;1254;111144;-61
2023/09/29 02:00:38;;;;;;;23.90;9.90;;;;;;;13.12;59.93;101821.66;107612;1254;108761;-61
2023/09/29 02:03:07;;;;;;;32.90;10.70;;;;;;;13.11;60.02;101818.46;107569;1251;106292;-62
2023/09/29 02:05:37;;;;;;;24.30;9.30;;;;;;;13.09;59.92;101818.67;107596;1252;97831;-62
2023/09/29 02:08:06;;;;;;;19.20;9.70;;;;;;;13.07;59.93;101817.44;107585;1254;98481;-61
2023/09/29 02:10:35;;;;;;;21.70;9.00;;;;;;;13.04;59.92;101817.09;107545;1251;110973;-61
2023/09/29 02:13:04;;;;;;;29.30;10.60;;;;;;;13.00;60.08;101820.63;107576;1254;109660;-62
2023/09/29 02:15:34;;;;;;;25.40;10.00;;;;;;;12.96;60.19;101820.96;107593;1255;107873;-61
2023/09/29 02:18:09;;;;;;;28.60;9.80;;;;;;;12.89;60.44;101823.90;107505;1259;97838;-62
2023/09/29 02:20:46;;;;;;;29.50;9.70;;;;;;;12.85;60.73;101819.88;107627;1255;97829;-61
2023/09/29 02:23:15;;;;;;;26.70;10.00;;;;;;;12.82;60.83;101820.64;107554;1254;112270;-61
2023/09/29 02:25:44;;;;;;;40.60;10.70;;;;;;;12.82;60.86;101822.23;107517;1254;109383;-61
2023/09/29 02:28:12;;;;;;;30.80;10.70;;;;;;;12.86;60.99;101825.58;107505;1256;108205;-62
2023/09/29 02:30:41;;;;;;;24.00;9.30;;;;;;;12.89;61.22;101823.14;107555;1256;97842;-61
2023/09/29 02:33:09;;;;;;;29.30;9.30;;;;;;;12.90;61.21;101818.77;107674;1254;98385;-61
2023/09/29 02:35:38;;;;;;;22.50;10.00;;;;;;;12.89;61.27;101820.10;107627;1254;111382;-61
2023/09/29 02:38:07;;;;;;;24.80;9.00;;;;;;;12.91;61.20;101819.60;107595;1254;109963;-61
2023/09/29 02:40:35;;;;;;;25.40;9.00;;;;;;;12.95;61.29;101824.48;107536;1256;108219;-62
2023/09/29 02:43:03;;;;;;;22.40;9.20;;;;;;;13.00;61.28;101821.77;107529;1254;97838;-62
2023/09/29 02:45:32;;;;;;;18.90;9.10;;;;;;;13.05;61.18;101819.95;107622;1254;97842;-63
2023/09/29 02:48:02;;;;;;;23.50;9.20;;;;;;;13.08;61.12;101819.80;107609;1254;111225;-62
2023/09/29 02:50:34;;;;;;;27.10;9.60;;;;;;;13.10;60.76;101819.82;107652;1254;109981;-63
2023/09/29 02:53:05;;;;;;;40.70;10.90;;;;;;;13.10;60.51;101822.17;107554;1256;107648;-62
2023/09/29 02:55:34;;;;;;;25.80;10.20;;;;;;;13.08;60.68;101822.14;107422;1254;97840;-61
2023/09/29 02:58:03;;;;;;;25.10;10.20;;;;;;;13.01;60.78;101818.80;107567;1254;97922;-62
2023/09/29 03:00:32;;;;;;;23.10;9.50;;;;;;;12.95;60.69;101817.42;107657;1254;111982;-62
2023/09/29 03:03:00;;;;;;;25.50;9.50;;;;;;;12.91;60.62;101815.08;107572;1251;109859;-61
2023/09/29 03:05:29;;;;;;;27.70;9.30;;;;;;;12.86;60.83;101816.39;107575;1254;107701;-61
2023/09/29 03:07:58;;;;;;;34.20;10.60;;;;;;;12.79;60.69;101821.10;107611;1254;97834;-62
2023/09/29 03:10:28;;;;;;;26.50;9.90;;;;;;;12.73;60.85;101826.44;107579;1254;97917;-62
2023/09/29 03:12:57;;;;;;;22.60;9.50;;;;;;;12.68;60.92;101829.75;107577;1256;111845;-62
2023/09/29 03:15:27;;;;;;;21.40;10.50;;;;;;;12.63;60.95;101838.36;107592;1256;110116;-62
2023/09/29 03:17:56;;;;;;;21.30;10.50;;;;;;;12.60;60.96;101840.26;107599;1256;108263;-61
2023/09/29 03:20:28;;;;;;;25.20;11.30;;;;;;;12.57;60.94;101841.23;107574;1257;97973;-61
2023/09/29 03:23:01;;;;;;;26.90;9.90;;;;;;;12.52;60.93;101839.63;107596;1255;98353;-61
2023/09/29 03:25:29;;;;;;;27.90;10.80;;;;;;;12.47;61.19;101840.88;107665;1254;110722;-61
2023/09/29 03:27:59;;;;;;;22.50;10.70;;;;;;;12.43;61.15;101837.12;107575;1256;108588;-62
2023/09/29 03:30:28;;;;;;;26.50;10.50;;;;;;;12.37;61.20;101834.15;107617;1255;107156;-61
2023/09/29 03:32:58;;;;;;;34.10;9.50;;;;;;;12.31;61.52;101833.04;107556;1256;97826;-61
2023/09/29 03:35:26;;;;;;;20.00;10.10;;;;;;;12.28;61.73;101834.70;107609;1254;97835;-62
2023/09/29 03:37:55;;;;;;;22.50;10.20;;;;;;;12.29;61.75;101831.96;107553;1254;112162;-62
2023/09/29 03:40:24;;;;;;;32.90;10.20;;;;;;;12.31;61.84;101831.25;107572;1257;109855;-62
2023/09/29 03:42:52;;;;;;;38.10;10.30;;;;;;;12.33;61.79;101836.26;107607;1254;107513;-61
2023/09/29 03:45:21;;;;;;;36.10;11.10;;;;;;;12.34;61.79;101834.36;107555;1256;97912;-62
2023/09/29 03:47:51;;;;;;;27.70;10.70;;;;;;;12.37;61.67;101836.33;107563;1255;97728;-63
2023/09/29 03:50:19;;;;;;;21.10;10.10;;;;;;;12.40;61.80;101832.16;107606;1254;111194;-62
2023/09/29 03:52:48;;;;;;;29.50;10.10;;;;;;;12.41;61.96;101831.67;107521;1254;109243;-61
2023/09/29 03:55:17;;;;;;;30.40;10.80;;;;;;;12.43;61.78;101831.67;107595;1254;106684;-65
2023/09/29 03:57:45;;;;;;;25.60;11.30;;;;;;;12.45;61.82;101831.90;107546;1254;98490;-61
2023/09/29 04:00:15;;;;;;;24.20;11.10;;;;;;;12.46;61.91;101832.73;107605;1254;97717;-62
2023/09/29 04:02:45;;;;;;;24.50;10.60;;;;;;;12.49;61.79;101834.67;107555;1255;111410;-61
2023/09/29 04:05:14;;;;;;;32.40;10.30;;;;;;;12.51;61.63;101839.35;107617;1254;107936;-61
2023/09/29 04:07:43;;;;;;;23.20;11.40;;;;;;;12.51;61.88;101840.80;107587;1255;108181;-62
2023/09/29 04:10:13;;;;;;;36.00;11.50;;;;;;;12.51;61.77;101840.96;107549;1254;97863;-61
2023/09/29 04:12:46;;;;;;;29.10;11.10;;;;;;;12.51;61.83;101842.53;107598;1254;97743;-62
2023/09/29 04:15:16;;;;;;;28.70;10.40;;;;;;;12.48;61.66;101845.90;107594;1256;109840;-62
2023/09/29 04:17:44;;;;;;;47.10;13.10;;;;;;;12.46;61.70;101848.70;107586;1256;108949;-62
2023/09/29 04:20:13;;;;;;;34.70;11.10;;;;;;;12.46;61.80;101854.46;107576;1254;108615;-62
2023/09/29 04:22:43;;;;;;;36.20;10.90;;;;;;;12.47;61.87;101854.77;107566;1255;97889;-62
2023/09/29 04:25:11;;;;;;;37.70;12.20;;;;;;;12.50;62.07;101855.81;107644;1254;97761;-62
2023/09/29 04:27:40;;;;;;;43.50;11.20;;;;;;;12.53;61.96;101853.55;107557;1256;110908;-62
2023/09/29 04:30:10;;;;;;;55.40;13.20;;;;;;;12.57;62.11;101858.64;107556;1254;109983;-62
2023/09/29 04:32:38;;;;;;;35.90;12.80;;;;;;;12.60;62.11;101858.76;107512;1254;107475;-62
2023/09/29 04:35:08;;;;;;;31.60;12.50;;;;;;;12.63;61.89;101858.54;107591;1254;97918;-63
2023/09/29 04:37:36;;;;;;;34.80;14.60;;;;;;;12.67;61.87;101859.13;107639;1257;97704;-63
2023/09/29 04:40:06;;;;;;;32.00;11.40;;;;;;;12.72;61.76;101856.95;107558;1255;111069;-63
2023/09/29 04:42:34;;;;;;;47.40;13.30;;;;;;;12.75;61.67;101858.12;107576;1254;109012;-61
2023/09/29 04:45:03;;;;;;;37.40;13.30;;;;;;;12.78;61.48;101861.13;107598;1255;106604;-61
2023/09/29 04:47:32;;;;;;;41.00;12.50;;;;;;;12.82;61.33;101861.00;107570;1254;97938;-62
2023/09/29 04:50:01;;;;;;;29.40;11.40;;;;;;;12.86;61.39;101865.40;107650;1254;97894;-62
2023/09/29 04:52:30;;;;;;;31.50;12.10;;;;;;;12.87;61.24;101866.15;107587;1252;110594;-62
2023/09/29 04:54:59;;;;;;;31.40;11.30;;;;;;;12.88;61.01;101871.15;107657;1251;109499;-62
2023/09/29 04:57:27;;;;;;;35.60;13.00;;;;;;;12.88;61.11;101869.88;107551;1257;106956;-62
2023/09/29 04:59:55;;;;;;;26.90;11.90;;;;;;;12.88;60.98;101871.11;107604;1251;97905;-61
2023/09/29 05:02:24;;;;;;;33.80;11.70;;;;;;;12.89;60.82;101872.13;107575;1254;97726;-61
2023/09/29 05:04:53;;;;;;;37.80;12.40;;;;;;;12.90;60.81;101874.22;107583;1254;111705;-62
2023/09/29 05:07:21;;;;;;;22.40;11.10;;;;;;;12.93;60.75;101867.34;107577;1253;109709;-62
2023/09/29 05:09:49;;;;;;;29.10;11.90;;;;;;;12.95;60.69;101868.04;107596;1257;107441;-61
2023/09/29 05:12:18;;;;;;;32.10;12.10;;;;;;;12.97;60.73;101875.60;107616;1254;97792;-62
2023/09/29 05:14:47;;;;;;;30.60;11.80;;;;;;;12.98;60.47;101876.41;107533;1254;99143;-62
2023/09/29 05:17:15;;;;;;;33.50;12.20;;;;;;;13.01;60.46;101878.91;107532;1254;112931;-62
2023/09/29 05:19:43;;;;;;;30.90;12.10;;;;;;;13.05;60.47;101880.26;107620;1257;109332;-61
2023/09/29 05:22:11;;;;;;;37.60;11.80;;;;;;;13.03;60.29;101882.86;107579;1254;108258;-62
2023/09/29 05:24:40;;;;;;;41.20;12.00;;;;;;;13.04;60.28;101888.38;107617;1254;97819;-61
2023/09/29 05:27:08;;;;;;;35.70;11.80;;;;;;;13.06;60.33;101885.92;107537;1256;97851;-61
2023/09/29 05:29:40;;;;;;;42.20;12.80;;;;;;;13.07;60.46;101884.55;107571;1254;111005;-61
2023/09/29 05:32:08;;;;;;;39.50;12.40;;;;;;;13.08;60.59;101888.25;107583;1255;109018;-62
2023/09/29 05:34:37;;;;;;;37.90;11.90;;;;;;;13.10;60.64;101893.14;107526;1254;108611;-62
2023/09/29 05:37:06;;;;;;;56.20;12.60;;;;;;;13.09;60.44;101896.96;107538;1254;97853;-62
2023/09/29 05:39:34;;;;;;;28.70;10.50;;;;;;;13.09;60.44;101897.73;107497;1251;97711;-61
2023/09/29 05:42:03;;;;;;;37.40;11.80;;;;;;;13.09;60.35;101893.73;107518;1254;111106;-61
2023/09/29 05:44:32;;;;;;;39.90;11.60;;;;;;;13.15;60.63;101896.88;107523;1254;109692;-61
2023/09/29 05:47:01;;;;;;;40.30;12.80;;;;;;;13.20;60.41;101894.30;107533;1254;108514;-61
2023/09/29 05:49:30;;;;;;;28.10;10.90;;;;;;;13.26;60.45;101894.48;107484;1254;97903;-62
2023/09/29 05:51:58;;;;;;;39.20;11.90;;;;;;;13.31;60.35;101895.53;107578;1254;97846;-63
2023/09/29 05:54:26;;;;;;;29.30;12.60;;;;;;;13.33;60.26;101893.23;107534;1255;111443;-62
2023/09/29 05:56:55;;;;;;;30.80;11.40;;;;;;;13.40;59.92;101898.67;107607;1254;109658;-62
2023/09/29 05:59:23;;;;;;;36.40;13.30;;;;;;;13.44;60.01;101897.56;107564;1251;107438;-63
2023/09/29 06:01:52;;;;;;;41.50;12.10;;;;;;;13.52;59.83;101902.20;107556;1251;97822;-62
2023/09/29 06:04:35;;;;;;;32.70;11.70;;;;;;;13.58;59.84;101902.73;107538;1254;97947;-62
2023/09/29 06:07:04;;;;;;;37.50;12.40;;;;;;;13.66;59.58;101900.71;107600;1254;111052;-62
2023/09/29 06:09:32;;;;;;;39.50;13.70;;;;;;;13.73;59.42;101899.30;107594;1251;109820;-62
2023/09/29 06:12:01;;;;;;;33.50;14.50;;;;;;;13.79;59.29;101905.14;107591;1253;108273;-63
2023/09/29 06:14:32;;;;;;;44.30;13.90;;;;;;;13.84;59.23;101905.98;107592;1252;97852;-62
2023/09/29 06:17:00;;;;;;;29.90;13.10;;;;;;;13.85;58.97;101906.30;107562;1255;97816;-61
2023/09/29 06:19:28;;;;;;;45.90;13.70;;;;;;;13.86;59.07;101908.52;107598;1256;111169;-61
2023/09/29 06:21:56;;;;;;;32.70;12.40;;;;;;;13.89;58.92;101909.88;107568;1254;110006;-62
2023/09/29 06:24:25;;;;;;;31.60;11.20;;;;;;;13.96;58.78;101913.06;107487;1254;108319;-62
2023/09/29 06:26:53;;;;;;;24.90;11.40;;;;;;;14.06;58.42;101913.82;107488;1254;97820;-62
2023/09/29 06:29:24;;;;;;;27.80;11.40;;;;;;;14.17;58.11;101910.79;107535;1254;97783;-61
2023/09/29 06:31:54;;;;;;;27.80;11.70;;;;;;;14.28;57.87;101902.80;107517;1254;110807;-62
2023/09/29 06:34:22;;;;;;;32.10;11.80;;;;;;;14.37;57.68;101906.71;107632;1251;109903;-63
2023/09/29 06:36:50;;;;;;;30.40;11.50;;;;;;;14.46;57.42;101907.92;107546;1253;108485;-61
2023/09/29 06:39:19;;;;;;;23.90;10.60;;;;;;;14.54;57.12;101909.22;107529;1254;98495;-61
2023/09/29 06:41:47;;;;;;;31.20;11.70;;;;;;;14.61;56.88;101909.91;107543;1251;97954;-61
2023/09/29 06:44:16;;;;;;;33.10;12.30;;;;;;;14.69;56.73;101911.20;107530;1252;112143;-61
2023/09/29 06:46:45;;;;;;;27.50;11.50;;;;;;;14.75;56.43;101913.55;107605;1251;109236;-62
2023/09/29 06:49:13;;;;;;;20.80;10.70;;;;;;;14.84;56.33;101909.54;107577;1254;107632;-63
2023/09/29 06:51:41;;;;;;;39.20;10.90;;;;;;;14.91;56.00;101908.94;107539;1256;97950;-63
2023/09/29 06:54:10;;;;;;;23.00;10.40;;;;;;;14.97;55.61;101905.11;107577;1251;98360;-62
2023/09/29 06:56:39;;;;;;;30.90;10.50;;;;;;;15.03;55.32;101905.70;107617;1251;111528;-64
2023/09/29 06:59:08;;;;;;;34.50;11.70;;;;;;;15.13;55.34;101910.91;107568;1254;109833;-62
2023/09/29 07:01:37;;;;;;;27.10;11.20;;;;;;;15.23;55.01;101909.80;107530;1254;108147;-61
2023/09/29 07:04:06;;;;;;;40.50;11.00;;;;;;;15.34;54.69;101910.67;107502;1254;97919;-61
2023/09/29 07:06:37;;;;;;;26.10;10.90;;;;;;;15.45;54.54;101909.33;107576;1251;98444;-62
2023/09/29 07:09:07;;;;;;;28.30;10.80;;;;;;;15.56;54.38;101916.98;107564;1251;111866;-61
2023/09/29 07:11:35;;;;;;;32.10;11.80;;;;;;;15.64;54.08;101917.16;107541;1255;109483;-63
2023/09/29 07:14:04;;;;;;;36.20;11.30;;;;;;;15.73;53.96;101920.89;107568;1254;108217;-63
2023/09/29 07:16:32;;;;;;;36.50;12.10;;;;;;;15.81;53.77;101920.27;107581;1251;97822;-62
2023/09/29 07:19:01;;;;;;;30.20;12.00;;;;;;;15.90;53.93;101916.92;107664;1254;97732;-61
2023/09/29 07:21:30;;;;;;;31.00;11.70;;;;;;;16.00;53.88;101918.92;107620;1255;112375;-61
2023/09/29 07:23:58;;;;;;;37.40;12.00;;;;;;;16.10;54.03;101917.96;107597;1255;109885;-62
2023/09/29 07:26:27;;;;;;;24.70;12.10;;;;;;;16.22;53.74;101921.20;107666;1254;108467;-61
2023/09/29 07:29:00;;;;;;;33.70;11.20;;;;;;;16.33;53.53;101921.11;107556;1254;98425;-63
2023/09/29 07:31:48;;;;;;;30.80;10.50;;;;;;;16.46;53.10;101918.41;107574;1251;98524;-61
2023/09/29 07:34:16;;;;;;;37.70;13.70;;;;;;;16.61;53.10;101915.53;107588;1254;110653;-61
2023/09/29 07:36:46;;;;;;;34.40;11.20;;;;;;;16.74;52.52;101918.44;107562;1254;108337;-62
2023/09/29 07:39:15;;;;;;;38.80;11.10;;;;;;;16.88;52.14;101919.27;107568;1254;108734;-62
2023/09/29 07:41:43;;;;;;;30.70;10.80;;;;;;;17.00;51.75;101915.75;107511;1254;97794;-61
2023/09/29 07:44:12;;;;;;;33.70;10.80;;;;;;;17.16;51.96;101915.88;107521;1254;98337;-62
2023/09/29 07:46:40;;;;;;;39.60;10.80;;;;;;;17.30;51.39;101918.10;107571;1251;111014;-61
2023/09/29 07:49:08;;;;;;;36.90;11.90;;;;;;;17.43;50.50;101916.83;107564;1251;109280;-62
2023/09/29 07:51:38;;;;;;;23.60;10.70;;;;;;;17.57;50.74;101917.46;107520;1252;108420;-62
2023/09/29 07:54:06;;;;;;;34.30;11.30;;;;;;;17.73;50.29;101918.98;107518;1254;97918;-62
2023/09/29 07:56:35;;;;;;;29.10;11.60;;;;;;;17.88;49.95;101918.89;107580;1254;98481;-62
2023/09/29 07:59:03;;;;;;;38.10;11.60;;;;;;;18.03;49.13;101917.55;107621;1253;110960;-62
2023/09/29 08:01:32;;;;;;;34.40;10.30;;;;;;;18.16;49.03;101913.88;107604;1255;108875;-62
2023/09/29 08:04:00;;;;;;;25.20;10.30;;;;;;;18.34;48.98;101913.09;107609;1253;108219;-63
2023/09/29 08:06:29;;;;;;;32.20;10.50;;;;;;;18.52;49.09;101911.98;107651;1254;97806;-62
2023/09/29 08:08:57;;;;;;;34.20;11.00;;;;;;;18.69;48.77;101908.52;107611;1254;98367;-62
2023/09/29 08:11:26;;;;;;;23.40;10.10;;;;;;;18.87;48.56;101907.08;107611;1254;112257;-61
2023/09/29 08:13:55;;;;;;;40.70;11.00;;;;;;;19.05;48.32;101907.77;107581;1253;110298;-61
2023/09/29 08:16:24;;;;;;;46.90;11.20;;;;;;;19.22;48.02;101901.39;107594;1257;107431;-62
2023/09/29 08:18:52;;;;;;;43.50;12.80;;;;;;;19.42;47.37;101902.90;107601;1253;97857;-62
2023/09/29 08:21:21;;;;;;;34.90;11.30;;;;;;;19.58;46.15;101900.44;107562;1253;97865;-62
2023/09/29 08:23:49;;;;;;;39.50;9.90;;;;;;;19.78;45.40;101899.70;107562;1253;110302;-61
2023/09/29 08:26:17;;;;;;;36.00;10.50;;;;;;;19.96;45.11;101897.73;107614;1256;110443;-62
2023/09/29 08:28:45;;;;;;;24.60;9.90;;;;;;;20.15;44.78;101894.30;107576;1254;108457;-62
2023/09/29 08:31:15;;;;;;;24.50;9.60;;;;;;;20.37;44.87;101894.44;107585;1252;97854;-62
2023/09/29 08:33:44;;;;;;;32.00;9.80;;;;;;;20.61;44.17;101885.88;107684;1252;97797;-61
2023/09/29 08:36:19;;;;;;;37.60;10.10;;;;;;;20.87;43.64;101887.38;107590;1253;111559;-61
2023/09/29 08:38:47;;;;;;;27.00;8.50;;;;;;;21.08;42.88;101883.11;107580;1255;109639;-62
2023/09/29 08:41:18;;;;;;;37.30;9.90;;;;;;;21.31;42.83;101877.84;107611;1254;108244;-63
2023/09/29 08:43:47;;;;;;;32.20;10.10;;;;;;;21.59;41.95;101874.94;107465;1254;97818;-63
2023/09/29 08:46:39;;;;;;;25.10;9.00;;;;;;;21.99;42.20;101874.45;107605;1251;97743;-63
2023/09/29 08:49:09;;;;;;;18.60;9.40;;;;;;;22.24;40.57;101872.56;107641;1254;112438;-62
2023/09/29 08:51:39;;;;;;;24.50;8.10;;;;;;;22.53;41.16;101872.01;107634;1254;108698;-63
2023/09/29 08:54:08;;;;;;;28.20;9.80;;;;;;;22.87;41.44;101870.77;107622;1252;108300;-62
2023/09/29 08:56:39;;;;;;;25.10;8.90;;;;;;;23.24;40.17;101866.38;107628;1254;97841;-63
2023/09/29 08:59:07;;;;;;;36.90;10.50;;;;;;;23.56;39.96;101865.11;107583;1254;97793;-63
2023/09/29 09:01:36;;;;;;;33.20;9.10;;;;;;;23.91;39.84;101859.99;107626;1254;112047;-62
2023/09/29 09:04:04;;;;;;;27.30;9.10;;;;;;;24.27;37.58;101860.58;107635;1254;109705;-63
2023/09/29 09:06:33;;;;;;;33.60;8.30;;;;;;;24.58;36.54;101857.26;107644;1256;106887;-62
2023/09/29 09:09:02;;;;;;;22.70;8.00;;;;;;;24.95;37.22;101854.06;107598;1251;97854;-63
2023/09/29 09:11:41;;;;;;;32.60;8.30;;;;;;;25.55;36.30;101852.65;107604;1251;97850;-62
2023/09/29 09:14:10;;;;;;;20.70;9.00;;;;;;;26.27;33.91;101852.27;107599;1251;112208;-63
2023/09/29 09:16:40;;;;;;;39.50;8.20;;;;;;;27.04;33.73;101850.55;107589;1254;109342;-63
2023/09/29 09:19:13;;;;;;;27.30;8.50;;;;;;;27.84;32.93;101845.14;107625;1251;107829;-63
2023/09/29 09:21:43;;;;;;;28.60;8.50;;;;;;;28.48;30.96;101842.10;107522;1254;97867;-61
2023/09/29 09:24:23;;;;;;;20.30;7.90;;;;;;;29.12;30.90;101841.95;107584;1255;97950;-61
2023/09/29 09:27:00;;;;;;;31.60;7.80;;;;;;;29.82;29.42;101839.93;107584;1256;110886;-61
2023/09/29 09:29:29;;;;;;;25.30;7.50;;;;;;;30.43;29.51;101837.65;107576;1251;108898;-62
2023/09/29 09:31:59;;;;;;;28.50;6.60;;;;;;;31.12;29.35;101836.84;107550;1256;108246;-62
2023/09/29 09:34:32;;;;;;;23.50;6.50;;;;;;;31.84;28.42;101833.61;107584;1252;97857;-62
2023/09/29 09:37:02;;;;;;;15.70;6.20;;;;;;;32.52;27.60;101830.63;107666;1253;97868;-62
2023/09/29 09:39:33;;;;;;;26.50;7.50;;;;;;;33.07;26.06;101826.05;107602;1251;111743;-62
2023/09/29 09:42:05;;;;;;;17.80;5.90;;;;;;;33.49;25.13;101823.74;107613;1253;110060;-62
2023/09/29 09:44:38;;;;;;;21.20;5.90;;;;;;;33.79;23.46;101823.41;107577;1251;107682;-62
2023/09/29 09:47:14;;;;;;;12.90;6.00;;;;;;;34.06;23.06;101819.66;107566;1253;97808;-62
2023/09/29 09:49:48;;;;;;;12.90;5.60;;;;;;;34.26;22.08;101817.92;107617;1254;98399;-63
2023/09/29 09:52:38;;;;;;;16.80;4.90;;;;;;;34.67;22.31;101812.42;107609;1253;111392;-64
2023/09/29 09:55:11;;;;;;;11.10;4.40;;;;;;;35.27;22.51;101809.70;107589;1251;110335;-63
2023/09/29 09:57:43;;;;;;;14.10;4.40;;;;;;;35.89;22.00;101803.02;107585;1254;107467;-61
2023/09/29 10:00:13;;;;;;;20.40;5.10;;;;;;;36.51;21.71;101803.63;107525;1254;97850;-62
2023/09/29 10:02:45;;;;;;;10.10;4.00;;;;;;;37.04;21.47;101792.18;107654;1254;97789;-62
2023/09/29 10:05:22;;;;;;;8.80;3.60;;;;;;;37.49;20.63;101790.49;107561;1254;111301;-62
2023/09/29 10:08:07;;;;;;;12.30;4.40;;;;;;;37.87;19.58;101785.77;107219;1251;385129;-62
2023/09/29 10:10:42;;;;;;;10.50;4.00;;;;;;;38.21;19.52;101783.46;107560;1254;107683;-63
2023/09/29 10:13:12;;;;;;;16.30;4.30;;;;;;;38.66;19.28;101777.82;107628;1254;97924;-63
2023/09/29 10:15:41;;;;;;;14.30;4.40;;;;;;;39.01;19.19;101777.58;107591;1252;97816;-63
2023/09/29 10:18:18;;;;;;;10.60;4.20;;;;;;;39.30;18.20;101775.02;107604;1251;111974;-63
2023/09/29 10:20:58;;;;;;;14.20;4.10;;;;;;;39.38;17.62;101771.02;107485;1254;109714;-63
2023/09/29 10:23:27;;;;;;;12.30;4.50;;;;;;;39.36;16.88;101769.02;107506;1253;108113;-63
2023/09/29 10:26:00;;;;;;;14.60;4.10;;;;;;;39.13;16.85;101766.64;107591;1253;97821;-63
2023/09/29 10:28:31;;;;;;;14.50;3.80;;;;;;;39.31;16.93;101767.42;107581;1254;98340;-63
2023/09/29 10:31:12;;;;;;;;;;;;;;;39.55;16.71;101763.27;107511;1251;111305;-62
2023/09/29 10:33:53;;;;;;;16.80;3.90;;;;;;;39.71;16.91;101759.00;107465;1253;109765;-62
2023/09/29 10:36:23;;;;;;;12.70;3.80;;;;;;;40.01;16.17;101751.88;107592;1254;106253;-62
2023/09/29 10:38:54;;;;;;;7.60;3.60;;;;;;;39.98;15.63;101750.15;107540;1254;97720;-63
2023/09/29 10:41:23;;;;;;;13.60;3.80;;;;;;;39.76;15.77;101746.24;107586;1251;97821;-63
2023/09/29 10:44:04;;;;;;;16.20;3.20;;;;;;;39.97;16.45;101741.42;107502;1251;111425;-64
2023/09/29 10:46:32;;;;;;;9.90;3.60;;;;;;;40.39;15.32;101744.04;107592;1256;109472;-63
2023/09/29 10:49:01;;;;;;;17.00;3.20;;;;;;;40.34;15.38;101740.48;107533;1251;108828;-64
2023/09/29 10:51:31;;;;;;;18.10;2.90;;;;;;;40.43;15.35;101739.77;107595;1251;97902;-64
2023/09/29 10:54:07;;;;;;;12.50;3.50;;;;;;;40.19;14.83;101737.23;107604;1251;98364;-63
2023/09/29 10:56:37;;;;;;;9.10;3.70;;;;;;;39.93;14.98;101732.50;107584;1254;112255;-62
2023/09/29 10:59:08;;;;;;;16.50;3.70;;;;;;;40.01;15.82;101725.56;107583;1253;109159;-63
2023/09/29 11:01:37;;;;;;;12.30;3.20;;;;;;;40.59;15.82;101724.98;107527;1252;108862;-63
2023/09/29 11:04:08;;;;;;;13.50;3.70;;;;;;;40.95;15.18;101720.34;107616;1253;97845;-63
2023/09/29 11:06:45;;;;;;;10.50;3.60;;;;;;;41.10;15.19;101715.20;107584;1251;97831;-62
2023/09/29 11:09:20;;;;;;;7.80;3.00;;;;;;;41.56;14.83;101712.50;107591;1251;110737;-63
2023/09/29 11:11:49;;;;;;;9.80;3.20;;;;;;;41.70;14.88;101712.82;107594;1253;110079;-64
2023/09/29 11:14:17;;;;;;;21.40;3.50;;;;;;;41.72;14.58;101709.66;107559;1255;107376;-63